Cape Express — HO5337 — position and weather

sailwx.info

Track history (hours):
 
Tides and Currents Weather Stations Pressure Air Temp Water Temp Dewpoint Dewpoint Depression Visibility Wind Speed Wind Dir Waves Ship Positions

Cape Express

Last reported at 2016-Dec-10 12:34 UTC. Time now 2016-Dec-10 12:41 UTC.
Position N 26°04' W 080°08'.

Length 29 m; draft 2.1 m.

Type: Cargo ship. MMSI: 370269000.

Date/timePositionNaut miles runAvg speedWind from/ knotsBaromVisibWave heightAir tempDewpointWater temp
2016-Dec-10 12:34N 26°04' W 080°08'0 0.0
2016-Dec-10 11:33N 26°04' W 080°08'0 0.0
2016-Dec-10 10:33N 26°04' W 080°08'0 0.0
2016-Dec-10 09:33N 26°04' W 080°08'0 0.0
2016-Dec-10 08:33N 26°04' W 080°08'0 0.0
2016-Dec-10 07:34N 26°04' W 080°08'0 0.0
2016-Dec-10 06:34N 26°04' W 080°08'0 0.0
2016-Dec-10 05:34N 26°04' W 080°08'0 0.0
2016-Dec-10 04:34N 26°04' W 080°08'0 0.0
2016-Dec-10 03:34N 26°04' W 080°08'0 0.0
2016-Dec-10 02:33N 26°04' W 080°08'1 1.5
2016-Dec-10 01:33N 26°05' W 080°07'8 8.2
2016-Dec-10 00:33N 26°04' W 079°58'8 8.1
2016-Dec-09 23:33N 26°05' W 079°49'9 8.7
2016-Dec-09 22:33N 26°04' W 079°39'14 1.0
2016-Dec-09 08:12N 26°16' W 079°31'6 8.8
2016-Dec-09 07:33N 26°15' W 079°37'9 9.1
2016-Dec-09 06:33N 26°12' W 079°46'9 8.6
2016-Dec-09 05:34N 26°09' W 079°55'9 9.1
2016-Dec-09 04:33N 26°05' W 080°05'3 3.1
2016-Dec-09 03:34N 26°04' W 080°08'0 0.0
2016-Dec-09 02:34N 26°04' W 080°08'0 0.0
2016-Dec-09 01:34N 26°04' W 080°08'0 0.0
2016-Dec-09 00:33N 26°04' W 080°08'0 0.0
2016-Dec-08 23:33N 26°04' W 080°08'0 0.0
2016-Dec-08 22:34N 26°04' W 080°08'0 0.0
2016-Dec-08 21:33N 26°04' W 080°08'0 0.0
2016-Dec-08 20:34N 26°04' W 080°08'0 0.0
2016-Dec-08 19:33N 26°04' W 080°08'6 5.7
2016-Dec-08 18:33N 26°05' W 080°02'1010.0
2016-Dec-08 17:33N 26°01' W 079°51'10 9.9
2016-Dec-08 16:33N 25°59' W 079°40'  
2016-Dec-05 06:32N 25°58' W 079°41'7 7.1
2016-Dec-05 05:33N 26°00' W 079°49'7 7.3
2016-Dec-05 04:33N 26°02' W 079°57'7 7.5
2016-Dec-05 03:34N 26°05' W 080°04'4 3.5
2016-Dec-05 02:33N 26°04' W 080°08'0 0.0
2016-Dec-05 01:34N 26°04' W 080°08'0 0.0
2016-Dec-05 00:33N 26°04' W 080°08'0 0.0
2016-Dec-04 23:33N 26°04' W 080°08'0 0.0
2016-Dec-04 22:34N 26°04' W 080°08'0 0.0
2016-Dec-04 21:34N 26°04' W 080°08'0 0.0
2016-Dec-04 20:34N 26°04' W 080°08'0 0.0
2016-Dec-04 19:33N 26°04' W 080°08'0 0.0
2016-Dec-04 18:33N 26°04' W 080°08'0 0.0
2016-Dec-04 17:33N 26°04' W 080°08'0 0.0
2016-Dec-04 16:33N 26°04' W 080°08'0 0.0
2016-Dec-04 15:33N 26°04' W 080°08'0 0.0
2016-Dec-04 14:34N 26°04' W 080°08'0 0.0
2016-Dec-04 13:33N 26°04' W 080°08'0 0.0
2016-Dec-04 12:34N 26°04' W 080°08'0 0.0
2016-Dec-04 11:33N 26°04' W 080°08'0 0.0
2016-Dec-04 10:34N 26°04' W 080°08'0 0.0
2016-Dec-04 09:34N 26°04' W 080°08'0 0.0
2016-Dec-04 08:34N 26°04' W 080°08'0 0.0
2016-Dec-04 07:34N 26°04' W 080°08'0 0.0
2016-Dec-04 06:34N 26°04' W 080°08'0 0.0
2016-Dec-04 05:34N 26°04' W 080°08'0 0.0
2016-Dec-04 04:33N 26°04' W 080°08'1 0.6
2016-Dec-04 03:33N 26°04' W 080°07'7 6.9
2016-Dec-04 02:33N 26°04' W 079°60'9 9.1
2016-Dec-04 01:33N 26°02' W 079°50'  
2016-Dec-01 09:18N 25°51' W 079°34'6 7.4
2016-Dec-01 08:33N 25°53' W 079°40'7 7.1
2016-Dec-01 07:33N 25°57' W 079°47'7 7.1
2016-Dec-01 06:34N 25°60' W 079°54'7 6.9
2016-Dec-01 05:33N 26°03' W 080°00'6 5.9
2016-Dec-01 04:33N 26°05' W 080°07'0 0.1
2016-Dec-01 03:33N 26°04' W 080°07'1 0.8
2016-Dec-01 02:34N 26°04' W 080°07'0 0.4
2016-Dec-01 01:33N 26°04' W 080°08'0 0.0
2016-Dec-01 00:33N 26°04' W 080°08'0 0.0
2016-Nov-30 23:34N 26°04' W 080°08'0 0.0
2016-Nov-30 22:33N 26°04' W 080°08'0 0.1
2016-Nov-30 21:33N 26°04' W 080°08'0 0.0
2016-Nov-30 20:34N 26°04' W 080°08'0 0.0
2016-Nov-30 19:33N 26°04' W 080°08'0 0.0
2016-Nov-30 18:33N 26°04' W 080°08'0 0.0
2016-Nov-30 17:33N 26°04' W 080°08'0 0.0
2016-Nov-30 16:33N 26°04' W 080°08'0 0.0
2016-Nov-30 15:33N 26°04' W 080°08'0 0.0
2016-Nov-30 14:33N 26°04' W 080°08'0 0.0
2016-Nov-30 13:33N 26°04' W 080°08'  
Track history (hours):
 
Tides and Currents Weather Stations Pressure Air Temp Water Temp Dewpoint Dewpoint Depression Visibility Wind Speed Wind Dir Waves Ship Positions

Cape Express

Last reported at 2016-Dec-10 12:34 UTC. Time now 2016-Dec-10 12:41 UTC.
Position N 26°04' W 080°08'.

Length 29 m; draft 2.1 m.

Type: Cargo ship. MMSI: 370269000.

Date/timePositionNaut miles runAvg speedWind from/ knotsBaromVisibWave heightAir tempDewpointWater temp
2016-Dec-10 12:34N 26°04' W 080°08'0 0.0
2016-Dec-10 11:33N 26°04' W 080°08'0 0.0
2016-Dec-10 10:33N 26°04' W 080°08'0 0.0
2016-Dec-10 09:33N 26°04' W 080°08'0 0.0
2016-Dec-10 08:33N 26°04' W 080°08'0 0.0
2016-Dec-10 07:34N 26°04' W 080°08'0 0.0
2016-Dec-10 06:34N 26°04' W 080°08'0 0.0
2016-Dec-10 05:34N 26°04' W 080°08'0 0.0
2016-Dec-10 04:34N 26°04' W 080°08'0 0.0
2016-Dec-10 03:34N 26°04' W 080°08'0 0.0
2016-Dec-10 02:33N 26°04' W 080°08'1 1.5
2016-Dec-10 01:33N 26°05' W 080°07'8 8.2
2016-Dec-10 00:33N 26°04' W 079°58'8 8.1
2016-Dec-09 23:33N 26°05' W 079°49'9 8.7
2016-Dec-09 22:33N 26°04' W 079°39'14 1.0
2016-Dec-09 08:12N 26°16' W 079°31'6 8.8
2016-Dec-09 07:33N 26°15' W 079°37'9 9.1
2016-Dec-09 06:33N 26°12' W 079°46'9 8.6
2016-Dec-09 05:34N 26°09' W 079°55'9 9.1
2016-Dec-09 04:33N 26°05' W 080°05'3 3.1
2016-Dec-09 03:34N 26°04' W 080°08'0 0.0
2016-Dec-09 02:34N 26°04' W 080°08'0 0.0
2016-Dec-09 01:34N 26°04' W 080°08'0 0.0
2016-Dec-09 00:33N 26°04' W 080°08'0 0.0
2016-Dec-08 23:33N 26°04' W 080°08'0 0.0
2016-Dec-08 22:34N 26°04' W 080°08'0 0.0
2016-Dec-08 21:33N 26°04' W 080°08'0 0.0
2016-Dec-08 20:34N 26°04' W 080°08'0 0.0
2016-Dec-08 19:33N 26°04' W 080°08'6 5.7
2016-Dec-08 18:33N 26°05' W 080°02'1010.0
2016-Dec-08 17:33N 26°01' W 079°51'10 9.9
2016-Dec-08 16:33N 25°59' W 079°40'  
2016-Dec-05 06:32N 25°58' W 079°41'7 7.1
2016-Dec-05 05:33N 26°00' W 079°49'7 7.3
2016-Dec-05 04:33N 26°02' W 079°57'7 7.5
2016-Dec-05 03:34N 26°05' W 080°04'4 3.5
2016-Dec-05 02:33N 26°04' W 080°08'0 0.0
2016-Dec-05 01:34N 26°04' W 080°08'0 0.0
2016-Dec-05 00:33N 26°04' W 080°08'0 0.0
2016-Dec-04 23:33N 26°04' W 080°08'0 0.0
2016-Dec-04 22:34N 26°04' W 080°08'0 0.0
2016-Dec-04 21:34N 26°04' W 080°08'0 0.0
2016-Dec-04 20:34N 26°04' W 080°08'0 0.0
2016-Dec-04 19:33N 26°04' W 080°08'0 0.0
2016-Dec-04 18:33N 26°04' W 080°08'0 0.0
2016-Dec-04 17:33N 26°04' W 080°08'0 0.0
2016-Dec-04 16:33N 26°04' W 080°08'0 0.0
2016-Dec-04 15:33N 26°04' W 080°08'0 0.0
2016-Dec-04 14:34N 26°04' W 080°08'0 0.0
2016-Dec-04 13:33N 26°04' W 080°08'0 0.0
2016-Dec-04 12:34N 26°04' W 080°08'0 0.0
2016-Dec-04 11:33N 26°04' W 080°08'0 0.0
2016-Dec-04 10:34N 26°04' W 080°08'0 0.0
2016-Dec-04 09:34N 26°04' W 080°08'0 0.0
2016-Dec-04 08:34N 26°04' W 080°08'0 0.0
2016-Dec-04 07:34N 26°04' W 080°08'0 0.0
2016-Dec-04 06:34N 26°04' W 080°08'0 0.0
2016-Dec-04 05:34N 26°04' W 080°08'0 0.0
2016-Dec-04 04:33N 26°04' W 080°08'1 0.6
2016-Dec-04 03:33N 26°04' W 080°07'7 6.9
2016-Dec-04 02:33N 26°04' W 079°60'9 9.1
2016-Dec-04 01:33N 26°02' W 079°50'  
2016-Dec-01 09:18N 25°51' W 079°34'6 7.4
2016-Dec-01 08:33N 25°53' W 079°40'7 7.1
2016-Dec-01 07:33N 25°57' W 079°47'7 7.1
2016-Dec-01 06:34N 25°60' W 079°54'7 6.9
2016-Dec-01 05:33N 26°03' W 080°00'6 5.9
2016-Dec-01 04:33N 26°05' W 080°07'0 0.1
2016-Dec-01 03:33N 26°04' W 080°07'1 0.8
2016-Dec-01 02:34N 26°04' W 080°07'0 0.4
2016-Dec-01 01:33N 26°04' W 080°08'0 0.0
2016-Dec-01 00:33N 26°04' W 080°08'0 0.0
2016-Nov-30 23:34N 26°04' W 080°08'0 0.0
2016-Nov-30 22:33N 26°04' W 080°08'0 0.1
2016-Nov-30 21:33N 26°04' W 080°08'0 0.0
2016-Nov-30 20:34N 26°04' W 080°08'0 0.0
2016-Nov-30 19:33N 26°04' W 080°08'0 0.0
2016-Nov-30 18:33N 26°04' W 080°08'0 0.0
2016-Nov-30 17:33N 26°04' W 080°08'0 0.0
2016-Nov-30 16:33N 26°04' W 080°08'0 0.0
2016-Nov-30 15:33N 26°04' W 080°08'0 0.0
2016-Nov-30 14:33N 26°04' W 080°08'0 0.0
2016-Nov-30 13:33N 26°04' W 080°08'  

Dump ship's entire track history